N6291L KORL-KORL
Flight info
| Callsign | N6291L |
|---|---|
| Flight time | 0h 40m |
| Altitude | 4500 |
| Route | 282818N0812816W 282605N0812818W 282216N0813109W 282121N0812414W 281723N0812732W 281128N0810843W 275610N0813434W 283426N0820439W 282724N0814315W |
| Aircraft | TBM8/L-SDFGRWY/S |
Departure
| Time | 2026-04-24 16:27 |
|---|---|
| Airport | Orlando Executive Airport (KORL) |
Arrival
| Time | 2026-04-24 17:08 |
|---|---|
| Airport | Orlando Executive Airport (KORL) |
| Time | Latitude | Longitude | Altitude | Speed | Heading |
|---|---|---|---|---|---|
| 2026-04-24 16:05 | 28.54856 | -81.33577 | 114 ft | 0 kts | 33° |
| 2026-04-24 16:20 | 28.54858 | -81.33575 | 114 ft | 0 kts | 33° |
| 2026-04-24 16:20 | 28.54844 | -81.33526 | 114 ft | 20 kts | 133° |
| 2026-04-24 16:21 | 28.54676 | -81.33624 | 113 ft | 12 kts | 216° |
| 2026-04-24 16:21 | 28.54619 | -81.33643 | 112 ft | 9 kts | 134° |
| 2026-04-24 16:21 | 28.54560 | -81.33599 | 111 ft | 11 kts | 218° |
| 2026-04-24 16:22 | 28.54525 | -81.33686 | 109 ft | 14 kts | 246° |
| 2026-04-24 16:22 | 28.54401 | -81.33869 | 108 ft | 13 kts | 194° |
| 2026-04-24 16:22 | 28.54383 | -81.33881 | 108 ft | 0 kts | 256° |
| 2026-04-24 16:26 | 28.54379 | -81.33888 | 108 ft | 0 kts | 214° |
| 2026-04-24 16:26 | 28.54337 | -81.33787 | 107 ft | 35 kts | 67° |
| 2026-04-24 16:27 | 28.54503 | -81.33345 | 116 ft | 84 kts | 66° |
| 2026-04-24 16:27 | 28.54805 | -81.32670 | 238 ft | 104 kts | 64° |
| 2026-04-24 16:27 | 28.55211 | -81.31961 | 534 ft | 112 kts | 61° |
| 2026-04-24 16:27 | 28.55634 | -81.31171 | 815 ft | 120 kts | 59° |
| 2026-04-24 16:28 | 28.56360 | -81.30685 | 1046 ft | 142 kts | 6° |
| 2026-04-24 16:28 | 28.57415 | -81.30947 | 1082 ft | 167 kts | 334° |
| 2026-04-24 16:28 | 28.57881 | -81.33442 | 990 ft | 196 kts | 249° |
| 2026-04-24 16:29 | 28.57418 | -81.34910 | 1059 ft | 196 kts | 246° |
| 2026-04-24 16:29 | 28.56908 | -81.36358 | 1040 ft | 199 kts | 245° |
| 2026-04-24 16:29 | 28.55833 | -81.39250 | 1162 ft | 194 kts | 245° |
| 2026-04-24 16:30 | 28.54679 | -81.42090 | 1007 ft | 199 kts | 240° |
| 2026-04-24 16:30 | 28.54038 | -81.43489 | 986 ft | 197 kts | 239° |
| 2026-04-24 16:30 | 28.53261 | -81.44691 | 1057 ft | 180 kts | 225° |
| 2026-04-24 16:31 | 28.52318 | -81.45617 | 906 ft | 180 kts | 211° |
| 2026-04-24 16:31 | 28.51231 | -81.46183 | 789 ft | 166 kts | 197° |
| 2026-04-24 16:31 | 28.50147 | -81.46535 | 689 ft | 158 kts | 191° |
| 2026-04-24 16:31 | 28.49093 | -81.46806 | 740 ft | 150 kts | 189° |
| 2026-04-24 16:32 | 28.48418 | -81.46959 | 762 ft | 150 kts | 188° |
| 2026-04-24 16:32 | 28.47137 | -81.47259 | 659 ft | 116 kts | 165° |
| 2026-04-24 16:32 | 28.46834 | -81.46673 | 606 ft | 94 kts | 64° |
| 2026-04-24 16:32 | 28.47337 | -81.46254 | 607 ft | 97 kts | 6° |
| 2026-04-24 16:33 | 28.47944 | -81.46523 | 696 ft | 100 kts | 303° |
| 2026-04-24 16:33 | 28.48059 | -81.47295 | 773 ft | 103 kts | 250° |
| 2026-04-24 16:33 | 28.47604 | -81.47911 | 687 ft | 99 kts | 210° |
| 2026-04-24 16:33 | 28.46981 | -81.48075 | 666 ft | 93 kts | 165° |
| 2026-04-24 16:34 | 28.46412 | -81.47670 | 684 ft | 101 kts | 129° |
| 2026-04-24 16:34 | 28.46190 | -81.46900 | 709 ft | 108 kts | 87° |
| 2026-04-24 16:34 | 28.46531 | -81.46163 | 759 ft | 108 kts | 32° |
| 2026-04-24 16:34 | 28.47274 | -81.46069 | 687 ft | 113 kts | 341° |
| 2026-04-24 16:35 | 28.47889 | -81.46602 | 687 ft | 110 kts | 303° |
| 2026-04-24 16:35 | 28.47913 | -81.47378 | 696 ft | 117 kts | 226° |
| 2026-04-24 16:35 | 28.47121 | -81.47714 | 780 ft | 131 kts | 178° |
| 2026-04-24 16:35 | 28.46171 | -81.47662 | 761 ft | 141 kts | 175° |
| 2026-04-24 16:36 | 28.45171 | -81.47591 | 778 ft | 146 kts | 176° |
| 2026-04-24 16:36 | 28.44148 | -81.47524 | 800 ft | 149 kts | 176° |
| 2026-04-24 16:36 | 28.43199 | -81.47137 | 822 ft | 149 kts | 134° |
| 2026-04-24 16:36 | 28.42778 | -81.46519 | 830 ft | 150 kts | 116° |
| 2026-04-24 16:37 | 28.42804 | -81.45528 | 820 ft | 117 kts | 49° |
| 2026-04-24 16:37 | 28.43455 | -81.45407 | 829 ft | 96 kts | 317° |
| 2026-04-24 16:37 | 28.43893 | -81.45940 | 819 ft | 92 kts | 301° |
| 2026-04-24 16:37 | 28.44060 | -81.46664 | 827 ft | 101 kts | 260° |
| 2026-04-24 16:38 | 28.43601 | -81.47202 | 859 ft | 105 kts | 190° |
| 2026-04-24 16:38 | 28.42861 | -81.47161 | 867 ft | 112 kts | 157° |
| 2026-04-24 16:38 | 28.42525 | -81.46420 | 868 ft | 118 kts | 75° |
| 2026-04-24 16:38 | 28.43151 | -81.45909 | 875 ft | 121 kts | 354° |
| 2026-04-24 16:39 | 28.43906 | -81.46315 | 857 ft | 123 kts | 315° |
| 2026-04-24 16:39 | 28.44302 | -81.47155 | 844 ft | 123 kts | 270° |
| 2026-04-24 16:39 | 28.43800 | -81.47929 | 867 ft | 141 kts | 204° |
| 2026-04-24 16:39 | 28.42869 | -81.48541 | 858 ft | 167 kts | 212° |
| 2026-04-24 16:40 | 28.41871 | -81.49330 | 855 ft | 182 kts | 216° |
| 2026-04-24 16:40 | 28.40830 | -81.50202 | 892 ft | 189 kts | 217° |
| 2026-04-24 16:40 | 28.39760 | -81.51110 | 822 ft | 196 kts | 216° |
| 2026-04-24 16:40 | 28.38729 | -81.51971 | 757 ft | 156 kts | 216° |
| 2026-04-24 16:41 | 28.37966 | -81.52579 | 724 ft | 116 kts | 205° |
| 2026-04-24 16:41 | 28.37271 | -81.52646 | 674 ft | 93 kts | 160° |
| 2026-04-24 16:41 | 28.36838 | -81.52089 | 657 ft | 110 kts | 105° |
| 2026-04-24 16:41 | 28.36905 | -81.51157 | 691 ft | 130 kts | 68° |
| 2026-04-24 16:42 | 28.37490 | -81.50323 | 700 ft | 143 kts | 33° |
| 2026-04-24 16:42 | 28.38453 | -81.50274 | 707 ft | 147 kts | 329° |
| 2026-04-24 16:42 | 28.38985 | -81.51207 | 683 ft | 145 kts | 283° |
| 2026-04-24 16:42 | 28.39011 | -81.52308 | 646 ft | 136 kts | 241° |
| 2026-04-24 16:43 | 28.38304 | -81.52689 | 654 ft | 124 kts | 163° |
| 2026-04-24 16:43 | 28.37525 | -81.52120 | 678 ft | 142 kts | 147° |
| 2026-04-24 16:43 | 28.36551 | -81.51861 | 675 ft | 151 kts | 183° |
| 2026-04-24 16:43 | 28.35723 | -81.51253 | 663 ft | 159 kts | 101° |
| 2026-04-24 16:44 | 28.36334 | -81.50358 | 676 ft | 165 kts | 9° |
| 2026-04-24 16:44 | 28.37491 | -81.50114 | 528 ft | 173 kts | 1° |
| 2026-04-24 16:44 | 28.38139 | -81.50796 | 657 ft | 115 kts | 279° |
| 2026-04-24 16:44 | 28.38112 | -81.51625 | 611 ft | 105 kts | 251° |
| 2026-04-24 16:45 | 28.37767 | -81.52353 | 658 ft | 107 kts | 223° |
| 2026-04-24 16:45 | 28.37068 | -81.52603 | 617 ft | 116 kts | 161° |
| 2026-04-24 16:45 | 28.36644 | -81.51861 | 611 ft | 132 kts | 92° |
| 2026-04-24 16:45 | 28.36693 | -81.50729 | 739 ft | 155 kts | 85° |
| 2026-04-24 16:46 | 28.36809 | -81.49403 | 680 ft | 180 kts | 87° |
| 2026-04-24 16:46 | 28.36893 | -81.47932 | 670 ft | 193 kts | 88° |
| 2026-04-24 16:46 | 28.36961 | -81.46419 | 808 ft | 192 kts | 89° |
| 2026-04-24 16:46 | 28.36979 | -81.44897 | 892 ft | 195 kts | 91° |
| 2026-04-24 16:47 | 28.36961 | -81.43345 | 906 ft | 198 kts | 92° |
| 2026-04-24 16:47 | 28.36930 | -81.41774 | 926 ft | 187 kts | 94° |
| 2026-04-24 16:47 | 28.36800 | -81.40544 | 911 ft | 134 kts | 113° |
| 2026-04-24 16:47 | 28.36323 | -81.39831 | 893 ft | 101 kts | 141° |
| 2026-04-24 16:48 | 28.35828 | -81.39371 | 870 ft | 92 kts | 152° |
| 2026-04-24 16:48 | 28.35118 | -81.39187 | 906 ft | 117 kts | 180° |
| 2026-04-24 16:48 | 28.34393 | -81.39595 | 978 ft | 128 kts | 238° |
| 2026-04-24 16:48 | 28.34407 | -81.40603 | 998 ft | 139 kts | 294° |
| 2026-04-24 16:49 | 28.35058 | -81.41447 | 976 ft | 148 kts | 325° |
| 2026-04-24 16:49 | 28.36032 | -81.41818 | 969 ft | 152 kts | 1° |
| 2026-04-24 16:49 | 28.36762 | -81.41283 | 946 ft | 117 kts | 65° |
| 2026-04-24 16:49 | 28.36937 | -81.40382 | 932 ft | 116 kts | 112° |
| 2026-04-24 16:50 | 28.36615 | -81.39965 | 927 ft | 109 kts | 148° |
| 2026-04-24 16:50 | 28.35445 | -81.39583 | 955 ft | 147 kts | 168° |
| 2026-04-24 16:50 | 28.34572 | -81.39635 | 940 ft | 111 kts | 204° |
| 2026-04-24 16:50 | 28.33940 | -81.39994 | 942 ft | 99 kts | 206° |
| 2026-04-24 16:51 | 28.33378 | -81.40352 | 947 ft | 82 kts | 211° |
| 2026-04-24 16:51 | 28.32942 | -81.40659 | 941 ft | 71 kts | 211° |
| 2026-04-24 16:51 | 28.32489 | -81.40974 | 943 ft | 81 kts | 211° |
| 2026-04-24 16:51 | 28.31984 | -81.41336 | 954 ft | 91 kts | 212° |
| 2026-04-24 16:52 | 28.31522 | -81.41680 | 938 ft | 74 kts | 210° |
| 2026-04-24 16:52 | 28.31033 | -81.42024 | 938 ft | 90 kts | 211° |
| 2026-04-24 16:52 | 28.30481 | -81.42428 | 947 ft | 98 kts | 213° |
| 2026-04-24 16:52 | 28.29900 | -81.42863 | 952 ft | 102 kts | 213° |
| 2026-04-24 16:53 | 28.29326 | -81.43296 | 1077 ft | 94 kts | 215° |
| 2026-04-24 16:53 | 28.28893 | -81.43846 | 1178 ft | 94 kts | 231° |
| 2026-04-24 16:53 | 28.28492 | -81.44441 | 1224 ft | 92 kts | 233° |
| 2026-04-24 16:53 | 28.28179 | -81.44954 | 1239 ft | 75 kts | 230° |
| 2026-04-24 16:54 | 28.27869 | -81.45506 | 1210 ft | 89 kts | 244° |
| 2026-04-24 16:54 | 28.27879 | -81.46220 | 1233 ft | 96 kts | 284° |
| 2026-04-24 16:54 | 28.28192 | -81.46908 | 1294 ft | 96 kts | 303° |
| 2026-04-24 16:54 | 28.28692 | -81.47363 | 1262 ft | 89 kts | 338° |
| 2026-04-24 16:55 | 28.29276 | -81.47408 | 1205 ft | 80 kts | 12° |
| 2026-04-24 16:55 | 28.29766 | -81.47199 | 1169 ft | 77 kts | 48° |
| 2026-04-24 16:55 | 28.30125 | -81.46702 | 1257 ft | 88 kts | 56° |
| 2026-04-24 16:55 | 28.30243 | -81.46034 | 1273 ft | 87 kts | 109° |
| 2026-04-24 16:56 | 28.30054 | -81.45282 | 1248 ft | 117 kts | 111° |
| 2026-04-24 16:56 | 28.29786 | -81.44375 | 1532 ft | 126 kts | 112° |
| 2026-04-24 16:56 | 28.29478 | -81.43400 | 1858 ft | 136 kts | 112° |
| 2026-04-24 16:56 | 28.29125 | -81.42320 | 1940 ft | 159 kts | 113° |
| 2026-04-24 16:57 | 28.28708 | -81.41123 | 2071 ft | 171 kts | 113° |
| 2026-04-24 16:57 | 28.28235 | -81.39792 | 1827 ft | 192 kts | 114° |
| 2026-04-24 16:57 | 28.27720 | -81.38359 | 1676 ft | 198 kts | 114° |
| 2026-04-24 16:57 | 28.27198 | -81.36914 | 1580 ft | 197 kts | 113° |
| 2026-04-24 16:58 | 28.26711 | -81.35475 | 1560 ft | 194 kts | 112° |
| 2026-04-24 16:58 | 28.26226 | -81.34050 | 1542 ft | 193 kts | 113° |
| 2026-04-24 16:58 | 28.25721 | -81.32637 | 1561 ft | 193 kts | 114° |
| 2026-04-24 16:58 | 28.25212 | -81.31221 | 1562 ft | 194 kts | 113° |
| 2026-04-24 16:59 | 28.24718 | -81.29799 | 1564 ft | 194 kts | 113° |
| 2026-04-24 16:59 | 28.24220 | -81.28371 | 1581 ft | 195 kts | 113° |
| 2026-04-24 16:59 | 28.23223 | -81.25509 | 1569 ft | 195 kts | 113° |
| 2026-04-24 17:00 | 28.22721 | -81.24081 | 1578 ft | 195 kts | 113° |
| 2026-04-24 17:00 | 28.21450 | -81.21393 | 1579 ft | 195 kts | 122° |
| 2026-04-24 17:00 | 28.20729 | -81.20054 | 1331 ft | 202 kts | 122° |
| 2026-04-24 17:01 | 28.19355 | -81.17572 | 921 ft | 138 kts | 123° |
| 2026-04-24 17:01 | 28.18919 | -81.16824 | 785 ft | 93 kts | 126° |
| 2026-04-24 17:02 | 28.18291 | -81.15830 | 710 ft | 73 kts | 121° |
| 2026-04-24 17:02 | 28.18007 | -81.15316 | 739 ft | 79 kts | 117° |
| 2026-04-24 17:02 | 28.17769 | -81.14786 | 638 ft | 68 kts | 118° |
| 2026-04-24 17:02 | 28.17728 | -81.14261 | 649 ft | 74 kts | 84° |
| 2026-04-24 17:03 | 28.17887 | -81.13042 | 735 ft | 80 kts | 76° |
| 2026-04-24 17:03 | 28.18094 | -81.12501 | 691 ft | 76 kts | 53° |
| 2026-04-24 17:03 | 28.18575 | -81.12233 | 636 ft | 78 kts | 15° |
| 2026-04-24 17:04 | 28.19085 | -81.12411 | 606 ft | 83 kts | 321° |
| 2026-04-24 17:04 | 28.19942 | -81.13324 | 588 ft | 85 kts | 291° |
| 2026-04-24 17:04 | 28.19927 | -81.13992 | 619 ft | 88 kts | 246° |
| 2026-04-24 17:05 | 28.19666 | -81.14669 | 769 ft | 97 kts | 238° |
| 2026-04-24 17:05 | 28.19336 | -81.15389 | 1050 ft | 110 kts | 240° |
| 2026-04-24 17:05 | 28.18560 | -81.17124 | 1689 ft | 137 kts | 240° |
| 2026-04-24 17:06 | 28.18099 | -81.18127 | 2044 ft | 149 kts | 240° |
| 2026-04-24 17:06 | 28.17260 | -81.19961 | 2378 ft | 96 kts | 241° |
| 2026-04-24 17:06 | 28.16980 | -81.20595 | 2209 ft | 90 kts | 240° |
| 2026-04-24 17:07 | 28.16792 | -81.21015 | 2081 ft | 89 kts | 236° |
| 2026-04-24 17:07 | 28.16503 | -81.21258 | 214 ft | 64 kts | 307° |
| 2026-04-24 17:07 | 28.16512 | -81.21256 | 80 ft | 0 kts | 288° |
| 2026-04-24 17:08 | 28.54856 | -81.33577 | 80 ft | 0 kts | 33° |